sensor_id;sensor_type;location;lat;lon;timestamp;P1;durP1;ratioP1;P2;durP2;ratioP2
38783;SDS011;24531;45.502;12.238;2022-12-26T00:01:56;127.22;;;73.57;;
38783;SDS011;24531;45.502;12.238;2022-12-26T00:04:24;119.93;;;69.50;;
38783;SDS011;24531;45.502;12.238;2022-12-26T00:06:49;88.43;;;56.45;;
38783;SDS011;24531;45.502;12.238;2022-12-26T00:09:15;82.90;;;53.70;;
38783;SDS011;24531;45.502;12.238;2022-12-26T00:11:41;82.65;;;56.33;;
38783;SDS011;24531;45.502;12.238;2022-12-26T00:14:09;81.85;;;55.00;;
38783;SDS011;24531;45.502;12.238;2022-12-26T00:16:38;82.18;;;55.28;;
38783;SDS011;24531;45.502;12.238;2022-12-26T00:19:04;77.28;;;53.35;;
38783;SDS011;24531;45.502;12.238;2022-12-26T00:21:30;79.75;;;53.33;;
38783;SDS011;24531;45.502;12.238;2022-12-26T00:23:56;86.03;;;55.78;;
38783;SDS011;24531;45.502;12.238;2022-12-26T00:26:23;75.00;;;51.28;;
38783;SDS011;24531;45.502;12.238;2022-12-26T00:28:51;86.85;;;56.75;;
38783;SDS011;24531;45.502;12.238;2022-12-26T00:31:19;82.30;;;54.17;;
38783;SDS011;24531;45.502;12.238;2022-12-26T00:33:47;83.55;;;55.60;;
38783;SDS011;24531;45.502;12.238;2022-12-26T00:36:18;84.60;;;56.97;;
38783;SDS011;24531;45.502;12.238;2022-12-26T00:38:49;74.05;;;52.65;;
38783;SDS011;24531;45.502;12.238;2022-12-26T00:41:16;79.47;;;54.50;;
38783;SDS011;24531;45.502;12.238;2022-12-26T00:43:43;81.10;;;54.05;;
38783;SDS011;24531;45.502;12.238;2022-12-26T00:46:09;78.95;;;53.80;;
38783;SDS011;24531;45.502;12.238;2022-12-26T00:48:34;78.25;;;54.33;;
38783;SDS011;24531;45.502;12.238;2022-12-26T00:51:00;81.13;;;54.40;;
38783;SDS011;24531;45.502;12.238;2022-12-26T00:53:27;83.63;;;54.00;;
38783;SDS011;24531;45.502;12.238;2022-12-26T00:55:52;82.13;;;53.63;;
38783;SDS011;24531;45.502;12.238;2022-12-26T00:58:19;79.63;;;53.28;;
38783;SDS011;24531;45.502;12.238;2022-12-26T01:00:45;81.93;;;53.88;;
38783;SDS011;24531;45.502;12.238;2022-12-26T01:03:12;79.20;;;52.63;;
38783;SDS011;24531;45.502;12.238;2022-12-26T01:05:41;81.80;;;52.63;;
38783;SDS011;24531;45.502;12.238;2022-12-26T01:08:08;75.60;;;51.78;;
38783;SDS011;24531;45.502;12.238;2022-12-26T01:10:34;76.40;;;52.40;;
38783;SDS011;24531;45.502;12.238;2022-12-26T01:13:00;78.07;;;51.45;;
38783;SDS011;24531;45.502;12.238;2022-12-26T01:15:27;80.05;;;52.38;;
38783;SDS011;24531;45.502;12.238;2022-12-26T01:17:52;73.90;;;51.08;;
38783;SDS011;24531;45.502;12.238;2022-12-26T01:20:18;77.53;;;50.85;;
38783;SDS011;24531;45.502;12.238;2022-12-26T01:22:44;76.63;;;50.13;;
38783;SDS011;24531;45.502;12.238;2022-12-26T01:25:10;72.22;;;49.38;;
38783;SDS011;24531;45.502;12.238;2022-12-26T01:27:36;84.40;;;52.10;;
38783;SDS011;24531;45.502;12.238;2022-12-26T01:30:02;77.20;;;52.55;;
38783;SDS011;24531;45.502;12.238;2022-12-26T01:32:28;80.90;;;52.38;;
38783;SDS011;24531;45.502;12.238;2022-12-26T01:34:53;78.97;;;51.20;;
38783;SDS011;24531;45.502;12.238;2022-12-26T01:37:20;83.55;;;54.95;;
38783;SDS011;24531;45.502;12.238;2022-12-26T01:39:47;75.97;;;50.92;;
38783;SDS011;24531;45.502;12.238;2022-12-26T01:42:14;78.38;;;52.10;;
38783;SDS011;24531;45.502;12.238;2022-12-26T01:44:58;80.68;;;50.75;;
38783;SDS011;24531;45.502;12.238;2022-12-26T01:47:29;75.57;;;51.67;;
38783;SDS011;24531;45.502;12.238;2022-12-26T01:50:04;74.47;;;49.45;;
38783;SDS011;24531;45.502;12.238;2022-12-26T01:52:35;75.35;;;50.72;;
38783;SDS011;24531;45.502;12.238;2022-12-26T01:55:07;71.65;;;48.67;;
38783;SDS011;24531;45.502;12.238;2022-12-26T01:57:39;75.15;;;50.97;;
38783;SDS011;24531;45.502;12.238;2022-12-26T02:00:08;82.38;;;51.83;;
38783;SDS011;24531;45.502;12.238;2022-12-26T02:02:34;74.90;;;50.63;;
38783;SDS011;24531;45.502;12.238;2022-12-26T02:05:21;76.38;;;50.17;;
38783;SDS011;24531;45.502;12.238;2022-12-26T02:08:05;81.53;;;49.47;;
38783;SDS011;24531;45.502;12.238;2022-12-26T02:10:38;89.45;;;56.47;;
38783;SDS011;24531;45.502;12.238;2022-12-26T02:13:10;80.45;;;53.63;;
38783;SDS011;24531;45.502;12.238;2022-12-26T02:15:36;74.63;;;50.65;;
38783;SDS011;24531;45.502;12.238;2022-12-26T02:18:03;74.47;;;49.90;;
38783;SDS011;24531;45.502;12.238;2022-12-26T02:20:31;75.25;;;51.75;;
38783;SDS011;24531;45.502;12.238;2022-12-26T02:23:11;75.05;;;50.63;;
38783;SDS011;24531;45.502;12.238;2022-12-26T02:31:47;73.88;;;52.95;;
38783;SDS011;24531;45.502;12.238;2022-12-26T02:34:33;78.05;;;51.92;;
38783;SDS011;24531;45.502;12.238;2022-12-26T02:45:35;77.28;;;53.15;;
38783;SDS011;24531;45.502;12.238;2022-12-26T02:48:45;78.05;;;52.33;;
38783;SDS011;24531;45.502;12.238;2022-12-26T02:51:19;76.07;;;52.88;;
38783;SDS011;24531;45.502;12.238;2022-12-26T02:57:57;73.20;;;52.15;;
38783;SDS011;24531;45.502;12.238;2022-12-26T03:00:27;78.72;;;52.33;;
38783;SDS011;24531;45.502;12.238;2022-12-26T03:03:19;74.85;;;52.03;;
38783;SDS011;24531;45.502;12.238;2022-12-26T03:06:16;78.65;;;51.53;;
38783;SDS011;24531;45.502;12.238;2022-12-26T03:09:15;76.13;;;52.15;;
38783;SDS011;24531;45.502;12.238;2022-12-26T03:12:07;61.30;;;39.95;;
38783;SDS011;24531;45.502;12.238;2022-12-26T03:15:02;77.78;;;50.55;;
38783;SDS011;24531;45.502;12.238;2022-12-26T03:17:34;80.15;;;52.17;;
38783;SDS011;24531;45.502;12.238;2022-12-26T03:20:08;72.28;;;50.90;;
38783;SDS011;24531;45.502;12.238;2022-12-26T03:25:10;78.03;;;52.28;;
38783;SDS011;24531;45.502;12.238;2022-12-26T03:28:00;72.90;;;51.42;;
38783;SDS011;24531;45.502;12.238;2022-12-26T03:30:25;74.55;;;49.95;;
38783;SDS011;24531;45.502;12.238;2022-12-26T03:33:09;74.97;;;51.65;;
38783;SDS011;24531;45.502;12.238;2022-12-26T03:35:55;75.22;;;52.55;;
38783;SDS011;24531;45.502;12.238;2022-12-26T03:38:23;75.07;;;51.13;;
38783;SDS011;24531;45.502;12.238;2022-12-26T03:44:12;71.60;;;48.70;;
38783;SDS011;24531;45.502;12.238;2022-12-26T03:47:02;68.50;;;47.70;;
38783;SDS011;24531;45.502;12.238;2022-12-26T03:50:10;72.22;;;48.55;;
38783;SDS011;24531;45.502;12.238;2022-12-26T03:53:09;73.35;;;51.17;;
38783;SDS011;24531;45.502;12.238;2022-12-26T03:56:04;72.32;;;49.60;;
38783;SDS011;24531;45.502;12.238;2022-12-26T04:01:47;55.53;;;37.17;;
38783;SDS011;24531;45.502;12.238;2022-12-26T04:04:33;70.00;;;48.92;;
38783;SDS011;24531;45.502;12.238;2022-12-26T04:07:25;74.90;;;50.45;;
38783;SDS011;24531;45.502;12.238;2022-12-26T04:10:18;76.13;;;51.42;;
38783;SDS011;24531;45.502;12.238;2022-12-26T04:13:12;74.75;;;51.42;;
38783;SDS011;24531;45.502;12.238;2022-12-26T04:22:02;71.60;;;48.95;;
38783;SDS011;24531;45.502;12.238;2022-12-26T04:25:25;71.70;;;47.97;;
38783;SDS011;24531;45.502;12.238;2022-12-26T04:28:13;71.07;;;48.30;;
38783;SDS011;24531;45.502;12.238;2022-12-26T04:31:08;73.47;;;47.35;;
38783;SDS011;24531;45.502;12.238;2022-12-26T04:34:00;72.22;;;47.53;;
38783;SDS011;24531;45.502;12.238;2022-12-26T04:36:53;74.05;;;49.33;;
38783;SDS011;24531;45.502;12.238;2022-12-26T04:39:42;70.80;;;48.10;;
38783;SDS011;24531;45.502;12.238;2022-12-26T04:42:31;73.57;;;49.22;;
38783;SDS011;24531;45.502;12.238;2022-12-26T04:45:16;75.78;;;50.05;;
38783;SDS011;24531;45.502;12.238;2022-12-26T04:47:43;70.13;;;48.85;;
38783;SDS011;24531;45.502;12.238;2022-12-26T04:50:29;76.20;;;51.10;;
38783;SDS011;24531;45.502;12.238;2022-12-26T04:52:54;71.50;;;51.78;;
38783;SDS011;24531;45.502;12.238;2022-12-26T04:55:27;77.55;;;50.38;;
38783;SDS011;24531;45.502;12.238;2022-12-26T04:57:54;74.43;;;51.28;;
38783;SDS011;24531;45.502;12.238;2022-12-26T05:00:21;75.25;;;51.22;;
38783;SDS011;24531;45.502;12.238;2022-12-26T05:02:49;76.03;;;49.50;;
38783;SDS011;24531;45.502;12.238;2022-12-26T05:05:35;73.20;;;50.38;;
38783;SDS011;24531;45.502;12.238;2022-12-26T05:08:28;77.38;;;49.78;;
38783;SDS011;24531;45.502;12.238;2022-12-26T05:13:41;72.63;;;45.78;;
38783;SDS011;24531;45.502;12.238;2022-12-26T05:16:07;66.88;;;47.95;;
38783;SDS011;24531;45.502;12.238;2022-12-26T05:18:51;71.18;;;49.53;;
38783;SDS011;24531;45.502;12.238;2022-12-26T05:21:35;70.57;;;48.88;;
38783;SDS011;24531;45.502;12.238;2022-12-26T05:24:20;76.57;;;50.22;;
38783;SDS011;24531;45.502;12.238;2022-12-26T05:27:06;75.47;;;50.47;;
38783;SDS011;24531;45.502;12.238;2022-12-26T05:29:58;70.03;;;48.33;;
38783;SDS011;24531;45.502;12.238;2022-12-26T05:32:24;70.63;;;50.17;;
38783;SDS011;24531;45.502;12.238;2022-12-26T05:35:08;77.82;;;52.25;;
38783;SDS011;24531;45.502;12.238;2022-12-26T05:37:34;74.53;;;51.63;;
38783;SDS011;24531;45.502;12.238;2022-12-26T05:40:00;73.18;;;51.22;;
38783;SDS011;24531;45.502;12.238;2022-12-26T05:42:26;74.47;;;50.72;;
38783;SDS011;24531;45.502;12.238;2022-12-26T05:44:51;74.15;;;48.97;;
38783;SDS011;24531;45.502;12.238;2022-12-26T05:47:17;68.80;;;48.72;;
38783;SDS011;24531;45.502;12.238;2022-12-26T05:49:43;71.57;;;49.47;;
38783;SDS011;24531;45.502;12.238;2022-12-26T05:52:08;74.53;;;49.33;;
38783;SDS011;24531;45.502;12.238;2022-12-26T05:54:34;68.72;;;47.15;;
38783;SDS011;24531;45.502;12.238;2022-12-26T05:56:59;70.88;;;46.97;;
38783;SDS011;24531;45.502;12.238;2022-12-26T05:59:25;71.95;;;49.72;;
38783;SDS011;24531;45.502;12.238;2022-12-26T06:01:51;72.07;;;47.78;;
38783;SDS011;24531;45.502;12.238;2022-12-26T06:04:17;71.95;;;49.55;;
38783;SDS011;24531;45.502;12.238;2022-12-26T06:06:42;73.53;;;48.10;;
38783;SDS011;24531;45.502;12.238;2022-12-26T06:09:08;74.28;;;50.53;;
38783;SDS011;24531;45.502;12.238;2022-12-26T06:11:34;72.35;;;50.22;;
38783;SDS011;24531;45.502;12.238;2022-12-26T06:13:59;69.78;;;47.20;;
38783;SDS011;24531;45.502;12.238;2022-12-26T06:16:26;76.53;;;49.85;;
38783;SDS011;24531;45.502;12.238;2022-12-26T06:18:53;68.15;;;48.75;;
38783;SDS011;24531;45.502;12.238;2022-12-26T06:21:21;67.57;;;48.45;;
38783;SDS011;24531;45.502;12.238;2022-12-26T06:23:48;73.45;;;49.75;;
38783;SDS011;24531;45.502;12.238;2022-12-26T06:26:14;69.47;;;46.90;;
38783;SDS011;24531;45.502;12.238;2022-12-26T06:28:41;70.30;;;48.70;;
38783;SDS011;24531;45.502;12.238;2022-12-26T06:31:08;75.03;;;50.03;;
38783;SDS011;24531;45.502;12.238;2022-12-26T06:33:35;67.90;;;47.42;;
38783;SDS011;24531;45.502;12.238;2022-12-26T06:36:06;72.50;;;49.05;;
38783;SDS011;24531;45.502;12.238;2022-12-26T06:38:34;73.13;;;48.38;;
38783;SDS011;24531;45.502;12.238;2022-12-26T06:41:00;72.93;;;47.42;;
38783;SDS011;24531;45.502;12.238;2022-12-26T06:43:25;67.13;;;48.58;;
38783;SDS011;24531;45.502;12.238;2022-12-26T06:45:55;69.63;;;47.30;;
38783;SDS011;24531;45.502;12.238;2022-12-26T06:48:22;68.90;;;46.75;;
38783;SDS011;24531;45.502;12.238;2022-12-26T06:50:48;66.38;;;46.15;;
38783;SDS011;24531;45.502;12.238;2022-12-26T06:53:14;68.53;;;46.45;;
38783;SDS011;24531;45.502;12.238;2022-12-26T06:55:39;65.90;;;45.78;;
38783;SDS011;24531;45.502;12.238;2022-12-26T06:58:05;64.35;;;46.97;;
38783;SDS011;24531;45.502;12.238;2022-12-26T07:00:31;66.75;;;46.25;;
38783;SDS011;24531;45.502;12.238;2022-12-26T07:02:56;68.95;;;46.80;;
38783;SDS011;24531;45.502;12.238;2022-12-26T07:05:22;67.90;;;46.72;;
38783;SDS011;24531;45.502;12.238;2022-12-26T07:07:51;66.88;;;46.88;;
38783;SDS011;24531;45.502;12.238;2022-12-26T07:10:17;64.82;;;46.03;;
38783;SDS011;24531;45.502;12.238;2022-12-26T07:12:44;70.60;;;45.55;;
38783;SDS011;24531;45.502;12.238;2022-12-26T07:15:10;73.40;;;46.28;;
38783;SDS011;24531;45.502;12.238;2022-12-26T07:17:35;68.20;;;46.55;;
38783;SDS011;24531;45.502;12.238;2022-12-26T07:20:02;67.18;;;47.13;;
38783;SDS011;24531;45.502;12.238;2022-12-26T07:22:28;67.00;;;45.10;;
38783;SDS011;24531;45.502;12.238;2022-12-26T07:24:54;68.05;;;45.67;;
38783;SDS011;24531;45.502;12.238;2022-12-26T07:27:19;70.70;;;46.20;;
38783;SDS011;24531;45.502;12.238;2022-12-26T07:29:45;65.55;;;44.08;;
38783;SDS011;24531;45.502;12.238;2022-12-26T07:32:11;67.63;;;46.75;;
38783;SDS011;24531;45.502;12.238;2022-12-26T07:34:37;66.38;;;45.80;;
38783;SDS011;24531;45.502;12.238;2022-12-26T07:37:03;65.50;;;45.58;;
38783;SDS011;24531;45.502;12.238;2022-12-26T07:39:28;62.80;;;43.83;;
38783;SDS011;24531;45.502;12.238;2022-12-26T07:41:54;69.30;;;46.08;;
38783;SDS011;24531;45.502;12.238;2022-12-26T07:44:23;67.15;;;44.90;;
38783;SDS011;24531;45.502;12.238;2022-12-26T07:46:49;67.72;;;44.90;;
38783;SDS011;24531;45.502;12.238;2022-12-26T07:49:15;68.30;;;44.17;;
38783;SDS011;24531;45.502;12.238;2022-12-26T07:51:41;68.53;;;45.95;;
38783;SDS011;24531;45.502;12.238;2022-12-26T07:54:07;66.57;;;44.53;;
38783;SDS011;24531;45.502;12.238;2022-12-26T07:56:33;65.75;;;44.92;;
38783;SDS011;24531;45.502;12.238;2022-12-26T07:58:59;72.43;;;46.88;;
38783;SDS011;24531;45.502;12.238;2022-12-26T08:01:25;68.15;;;45.38;;
38783;SDS011;24531;45.502;12.238;2022-12-26T08:03:50;62.85;;;44.10;;
38783;SDS011;24531;45.502;12.238;2022-12-26T08:06:16;64.50;;;44.67;;
38783;SDS011;24531;45.502;12.238;2022-12-26T08:08:43;68.90;;;45.95;;
38783;SDS011;24531;45.502;12.238;2022-12-26T08:11:09;69.68;;;43.95;;
38783;SDS011;24531;45.502;12.238;2022-12-26T08:13:38;67.22;;;44.15;;
38783;SDS011;24531;45.502;12.238;2022-12-26T08:16:04;65.40;;;44.80;;
38783;SDS011;24531;45.502;12.238;2022-12-26T08:18:31;62.83;;;44.15;;
38783;SDS011;24531;45.502;12.238;2022-12-26T08:20:57;67.32;;;45.03;;
38783;SDS011;24531;45.502;12.238;2022-12-26T08:23:23;66.55;;;45.92;;
38783;SDS011;24531;45.502;12.238;2022-12-26T08:25:48;73.60;;;46.72;;
38783;SDS011;24531;45.502;12.238;2022-12-26T08:28:14;67.45;;;43.78;;
38783;SDS011;24531;45.502;12.238;2022-12-26T08:30:40;67.95;;;46.58;;
38783;SDS011;24531;45.502;12.238;2022-12-26T08:33:06;68.57;;;47.45;;
38783;SDS011;24531;45.502;12.238;2022-12-26T08:35:32;71.53;;;47.35;;
38783;SDS011;24531;45.502;12.238;2022-12-26T08:38:02;65.20;;;45.65;;
38783;SDS011;24531;45.502;12.238;2022-12-26T08:40:28;69.88;;;46.38;;
38783;SDS011;24531;45.502;12.238;2022-12-26T08:42:53;68.22;;;47.35;;
38783;SDS011;24531;45.502;12.238;2022-12-26T08:45:19;75.60;;;48.40;;
38783;SDS011;24531;45.502;12.238;2022-12-26T08:47:45;72.13;;;46.80;;
38783;SDS011;24531;45.502;12.238;2022-12-26T08:50:10;68.97;;;46.97;;
38783;SDS011;24531;45.502;12.238;2022-12-26T08:52:36;73.43;;;48.83;;
38783;SDS011;24531;45.502;12.238;2022-12-26T08:55:02;68.20;;;49.28;;
38783;SDS011;24531;45.502;12.238;2022-12-26T08:57:28;68.85;;;49.22;;
38783;SDS011;24531;45.502;12.238;2022-12-26T08:59:54;71.50;;;46.45;;
38783;SDS011;24531;45.502;12.238;2022-12-26T09:02:19;76.47;;;49.38;;
38783;SDS011;24531;45.502;12.238;2022-12-26T09:04:45;74.28;;;50.13;;
38783;SDS011;24531;45.502;12.238;2022-12-26T09:07:10;74.22;;;48.53;;
38783;SDS011;24531;45.502;12.238;2022-12-26T09:09:36;74.70;;;49.58;;
38783;SDS011;24531;45.502;12.238;2022-12-26T09:12:02;73.07;;;50.83;;
38783;SDS011;24531;45.502;12.238;2022-12-26T09:14:27;72.78;;;47.75;;
38783;SDS011;24531;45.502;12.238;2022-12-26T09:16:53;73.15;;;49.25;;
38783;SDS011;24531;45.502;12.238;2022-12-26T09:19:19;75.43;;;50.08;;
38783;SDS011;24531;45.502;12.238;2022-12-26T09:21:46;72.05;;;48.58;;
38783;SDS011;24531;45.502;12.238;2022-12-26T09:24:14;72.50;;;49.38;;
38783;SDS011;24531;45.502;12.238;2022-12-26T09:26:41;74.13;;;50.10;;
38783;SDS011;24531;45.502;12.238;2022-12-26T09:29:11;74.22;;;49.35;;
38783;SDS011;24531;45.502;12.238;2022-12-26T09:31:37;76.18;;;50.90;;
38783;SDS011;24531;45.502;12.238;2022-12-26T09:34:03;79.20;;;50.83;;
38783;SDS011;24531;45.502;12.238;2022-12-26T09:36:31;75.13;;;49.22;;
38783;SDS011;24531;45.502;12.238;2022-12-26T09:38:59;74.35;;;49.92;;
38783;SDS011;24531;45.502;12.238;2022-12-26T09:43:59;74.97;;;50.97;;
38783;SDS011;24531;45.502;12.238;2022-12-26T09:49:54;69.53;;;48.83;;
38783;SDS011;24531;45.502;12.238;2022-12-26T09:55:05;75.93;;;51.65;;
38783;SDS011;24531;45.502;12.238;2022-12-26T09:57:48;74.85;;;51.13;;
38783;SDS011;24531;45.502;12.238;2022-12-26T10:00:20;73.28;;;51.40;;
38783;SDS011;24531;45.502;12.238;2022-12-26T10:02:58;72.88;;;48.88;;
38783;SDS011;24531;45.502;12.238;2022-12-26T10:05:26;82.53;;;53.13;;
38783;SDS011;24531;45.502;12.238;2022-12-26T10:08:12;80.03;;;52.22;;
38783;SDS011;24531;45.502;12.238;2022-12-26T10:11:01;73.18;;;49.03;;
38783;SDS011;24531;45.502;12.238;2022-12-26T10:13:34;75.93;;;51.28;;
38783;SDS011;24531;45.502;12.238;2022-12-26T10:16:15;81.97;;;51.35;;
38783;SDS011;24531;45.502;12.238;2022-12-26T10:19:10;68.97;;;48.70;;
38783;SDS011;24531;45.502;12.238;2022-12-26T10:21:48;79.85;;;52.67;;
38783;SDS011;24531;45.502;12.238;2022-12-26T10:24:38;73.32;;;49.08;;
38783;SDS011;24531;45.502;12.238;2022-12-26T10:27:11;77.88;;;51.28;;
38783;SDS011;24531;45.502;12.238;2022-12-26T10:29:40;72.70;;;48.72;;
38783;SDS011;24531;45.502;12.238;2022-12-26T10:32:19;79.15;;;53.08;;
38783;SDS011;24531;45.502;12.238;2022-12-26T10:34:49;78.72;;;53.28;;
38783;SDS011;24531;45.502;12.238;2022-12-26T10:37:21;77.35;;;51.35;;
38783;SDS011;24531;45.502;12.238;2022-12-26T10:42:40;77.10;;;49.75;;
38783;SDS011;24531;45.502;12.238;2022-12-26T10:47:40;66.97;;;47.15;;
38783;SDS011;24531;45.502;12.238;2022-12-26T10:50:17;73.55;;;48.88;;
38783;SDS011;24531;45.502;12.238;2022-12-26T10:52:45;72.88;;;50.50;;
38783;SDS011;24531;45.502;12.238;2022-12-26T10:55:15;77.82;;;50.25;;
38783;SDS011;24531;45.502;12.238;2022-12-26T10:57:45;78.75;;;50.92;;
38783;SDS011;24531;45.502;12.238;2022-12-26T11:05:37;67.30;;;45.60;;
38783;SDS011;24531;45.502;12.238;2022-12-26T11:10:42;70.03;;;48.08;;
38783;SDS011;24531;45.502;12.238;2022-12-26T11:13:19;73.75;;;49.47;;
38783;SDS011;24531;45.502;12.238;2022-12-26T11:15:48;75.40;;;50.83;;
38783;SDS011;24531;45.502;12.238;2022-12-26T11:20:45;78.90;;;52.30;;
38783;SDS011;24531;45.502;12.238;2022-12-26T11:23:17;75.75;;;50.85;;
38783;SDS011;24531;45.502;12.238;2022-12-26T11:25:54;74.60;;;48.92;;
38783;SDS011;24531;45.502;12.238;2022-12-26T11:28:29;71.50;;;49.90;;
38783;SDS011;24531;45.502;12.238;2022-12-26T11:30:57;72.90;;;50.08;;
38783;SDS011;24531;45.502;12.238;2022-12-26T11:38:50;72.55;;;50.80;;
38783;SDS011;24531;45.502;12.238;2022-12-26T11:43:58;75.50;;;52.38;;
38783;SDS011;24531;45.502;12.238;2022-12-26T11:46:30;79.00;;;53.13;;
38783;SDS011;24531;45.502;12.238;2022-12-26T11:51:48;79.38;;;53.63;;
38783;SDS011;24531;45.502;12.238;2022-12-26T11:56:43;81.20;;;54.30;;
38783;SDS011;24531;45.502;12.238;2022-12-26T11:59:16;86.75;;;55.22;;
38783;SDS011;24531;45.502;12.238;2022-12-26T12:01:47;83.97;;;56.47;;
38783;SDS011;24531;45.502;12.238;2022-12-26T12:04:34;105.70;;;64.95;;
38783;SDS011;24531;45.502;12.238;2022-12-26T12:07:02;92.70;;;58.30;;
38783;SDS011;24531;45.502;12.238;2022-12-26T12:09:53;81.15;;;55.67;;
38783;SDS011;24531;45.502;12.238;2022-12-26T12:12:49;84.40;;;54.22;;
38783;SDS011;24531;45.502;12.238;2022-12-26T12:15:30;75.43;;;54.25;;
38783;SDS011;24531;45.502;12.238;2022-12-26T12:37:04;86.13;;;54.45;;
38783;SDS011;24531;45.502;12.238;2022-12-26T12:43:26;70.97;;;44.15;;
38783;SDS011;24531;45.502;12.238;2022-12-26T12:48:47;79.10;;;52.88;;
38783;SDS011;24531;45.502;12.238;2022-12-26T12:51:22;76.63;;;51.78;;
38783;SDS011;24531;45.502;12.238;2022-12-26T13:00:10;78.43;;;52.65;;
38783;SDS011;24531;45.502;12.238;2022-12-26T13:02:17;76.75;;;53.15;;
38783;SDS011;24531;45.502;12.238;2022-12-26T13:05:01;87.00;;;56.70;;
38783;SDS011;24531;45.502;12.238;2022-12-26T13:07:39;79.10;;;52.58;;
38783;SDS011;24531;45.502;12.238;2022-12-26T13:10:18;83.07;;;52.92;;
38783;SDS011;24531;45.502;12.238;2022-12-26T13:12:54;78.55;;;51.88;;
38783;SDS011;24531;45.502;12.238;2022-12-26T13:15:34;79.68;;;51.90;;
38783;SDS011;24531;45.502;12.238;2022-12-26T13:18:15;78.75;;;51.50;;
38783;SDS011;24531;45.502;12.238;2022-12-26T13:20:48;81.13;;;53.65;;
38783;SDS011;24531;45.502;12.238;2022-12-26T13:23:36;84.55;;;55.75;;
38783;SDS011;24531;45.502;12.238;2022-12-26T13:26:26;86.57;;;54.53;;
38783;SDS011;24531;45.502;12.238;2022-12-26T13:31:58;85.47;;;57.72;;
38783;SDS011;24531;45.502;12.238;2022-12-26T13:34:25;84.03;;;56.33;;
38783;SDS011;24531;45.502;12.238;2022-12-26T13:36:52;85.80;;;56.25;;
38783;SDS011;24531;45.502;12.238;2022-12-26T13:39:23;90.38;;;59.97;;
38783;SDS011;24531;45.502;12.238;2022-12-26T13:41:58;130.07;;;80.30;;
38783;SDS011;24531;45.502;12.238;2022-12-26T13:47:33;90.68;;;60.28;;
38783;SDS011;24531;45.502;12.238;2022-12-26T13:53:02;91.95;;;60.13;;
38783;SDS011;24531;45.502;12.238;2022-12-26T13:55:30;90.10;;;61.70;;
38783;SDS011;24531;45.502;12.238;2022-12-26T13:58:10;96.80;;;63.72;;
38783;SDS011;24531;45.502;12.238;2022-12-26T14:01:46;84.05;;;59.13;;
38783;SDS011;24531;45.502;12.238;2022-12-26T14:09:36;93.75;;;62.05;;
38783;SDS011;24531;45.502;12.238;2022-12-26T14:18:04;95.63;;;65.25;;
38783;SDS011;24531;45.502;12.238;2022-12-26T14:20:54;93.88;;;62.05;;
38783;SDS011;24531;45.502;12.238;2022-12-26T14:34:29;99.93;;;64.57;;
38783;SDS011;24531;45.502;12.238;2022-12-26T14:45:38;93.75;;;63.92;;
38783;SDS011;24531;45.502;12.238;2022-12-26T14:50:42;105.03;;;68.18;;
38783;SDS011;24531;45.502;12.238;2022-12-26T15:06:39;91.00;;;63.67;;
38783;SDS011;24531;45.502;12.238;2022-12-26T15:15:20;94.32;;;64.05;;
38783;SDS011;24531;45.502;12.238;2022-12-26T15:17:47;95.25;;;63.10;;
38783;SDS011;24531;45.502;12.238;2022-12-26T15:20:43;96.47;;;64.35;;
38783;SDS011;24531;45.502;12.238;2022-12-26T15:23:48;91.47;;;61.22;;
38783;SDS011;24531;45.502;12.238;2022-12-26T15:29:16;89.25;;;62.33;;
38783;SDS011;24531;45.502;12.238;2022-12-26T15:35:20;94.93;;;64.65;;
38783;SDS011;24531;45.502;12.238;2022-12-26T15:37:58;98.45;;;63.92;;
38783;SDS011;24531;45.502;12.238;2022-12-26T15:40:36;92.60;;;61.95;;
38783;SDS011;24531;45.502;12.238;2022-12-26T15:51:16;95.15;;;64.70;;
38783;SDS011;24531;45.502;12.238;2022-12-26T16:04:56;92.45;;;63.10;;
38783;SDS011;24531;45.502;12.238;2022-12-26T16:13:48;95.75;;;62.55;;
38783;SDS011;24531;45.502;12.238;2022-12-26T16:16:33;94.47;;;64.10;;
38783;SDS011;24531;45.502;12.238;2022-12-26T16:19:13;97.57;;;65.88;;
38783;SDS011;24531;45.502;12.238;2022-12-26T16:22:05;95.47;;;63.30;;
38783;SDS011;24531;45.502;12.238;2022-12-26T16:24:54;88.85;;;61.10;;
38783;SDS011;24531;45.502;12.238;2022-12-26T16:27:21;88.60;;;60.85;;
38783;SDS011;24531;45.502;12.238;2022-12-26T16:29:52;97.55;;;63.55;;
38783;SDS011;24531;45.502;12.238;2022-12-26T16:32:22;93.82;;;63.10;;
38783;SDS011;24531;45.502;12.238;2022-12-26T16:34:55;94.60;;;61.42;;
38783;SDS011;24531;45.502;12.238;2022-12-26T16:37:23;88.82;;;61.13;;
38783;SDS011;24531;45.502;12.238;2022-12-26T16:42:44;94.68;;;62.58;;
38783;SDS011;24531;45.502;12.238;2022-12-26T16:45:22;91.88;;;62.38;;
38783;SDS011;24531;45.502;12.238;2022-12-26T16:47:49;90.10;;;62.35;;
38783;SDS011;24531;45.502;12.238;2022-12-26T16:50:15;87.57;;;61.00;;
38783;SDS011;24531;45.502;12.238;2022-12-26T16:52:47;90.75;;;62.53;;
38783;SDS011;24531;45.502;12.238;2022-12-26T16:58:01;92.65;;;63.25;;
38783;SDS011;24531;45.502;12.238;2022-12-26T17:00:44;86.30;;;62.38;;
38783;SDS011;24531;45.502;12.238;2022-12-26T17:03:17;87.82;;;61.35;;
38783;SDS011;24531;45.502;12.238;2022-12-26T17:05:52;91.43;;;60.80;;
38783;SDS011;24531;45.502;12.238;2022-12-26T17:08:18;83.80;;;60.63;;
38783;SDS011;24531;45.502;12.238;2022-12-26T17:10:46;91.97;;;62.22;;
38783;SDS011;24531;45.502;12.238;2022-12-26T17:13:15;93.07;;;65.47;;
38783;SDS011;24531;45.502;12.238;2022-12-26T17:15:48;89.60;;;61.35;;
38783;SDS011;24531;45.502;12.238;2022-12-26T17:18:36;94.20;;;61.35;;
38783;SDS011;24531;45.502;12.238;2022-12-26T17:21:17;87.15;;;60.80;;
38783;SDS011;24531;45.502;12.238;2022-12-26T17:23:45;90.15;;;61.58;;
38783;SDS011;24531;45.502;12.238;2022-12-26T17:26:36;89.95;;;61.65;;
38783;SDS011;24531;45.502;12.238;2022-12-26T17:29:02;84.78;;;59.40;;
38783;SDS011;24531;45.502;12.238;2022-12-26T17:31:36;89.13;;;62.45;;
38783;SDS011;24531;45.502;12.238;2022-12-26T17:34:13;91.72;;;62.45;;
38783;SDS011;24531;45.502;12.238;2022-12-26T17:36:44;94.15;;;62.42;;
38783;SDS011;24531;45.502;12.238;2022-12-26T17:39:11;88.70;;;61.22;;
38783;SDS011;24531;45.502;12.238;2022-12-26T17:41:50;85.05;;;61.38;;
38783;SDS011;24531;45.502;12.238;2022-12-26T17:44:32;92.22;;;63.40;;
38783;SDS011;24531;45.502;12.238;2022-12-26T17:47:01;92.63;;;65.18;;
38783;SDS011;24531;45.502;12.238;2022-12-26T17:49:33;97.40;;;65.53;;
38783;SDS011;24531;45.502;12.238;2022-12-26T17:51:59;97.25;;;63.63;;
38783;SDS011;24531;45.502;12.238;2022-12-26T17:54:24;95.50;;;64.15;;
38783;SDS011;24531;45.502;12.238;2022-12-26T17:56:50;93.03;;;62.63;;
38783;SDS011;24531;45.502;12.238;2022-12-26T17:59:15;89.10;;;63.25;;
38783;SDS011;24531;45.502;12.238;2022-12-26T18:01:41;90.35;;;61.75;;
38783;SDS011;24531;45.502;12.238;2022-12-26T18:04:06;91.70;;;63.05;;
38783;SDS011;24531;45.502;12.238;2022-12-26T18:06:32;95.85;;;64.88;;